Time;durP1;ratioP1;P1;durP2;ratioP2;P2;SDS_P1;SDS_P2;PMS_P1;PMS_P2;Temp;Humidity;BMP_temperature;BMP_pressure;BME280_temperature;BME280_humidity;BME280_pressure;Samples;Min_cycle;Max_cycle;Signal;HPM_P1;HPM_P2
2020/12/11 00:02:05;;;;;;;33.53;15.88;;;-1.90;99.90;;;;;;5047729;28;20058;-82
2020/12/11 00:04:31;;;;;;;29.60;12.68;;;-1.90;99.90;;;;;;5046693;28;20032;-80
2020/12/11 00:06:58;;;;;;;24.63;11.30;;;-1.90;99.90;;;;;;5047063;28;20516;-81
2020/12/11 00:09:24;;;;;;;21.70;10.75;;;-1.70;99.90;;;;;;5028782;28;20032;-84
2020/12/11 00:11:50;;;;;;;22.58;11.60;;;-1.70;99.90;;;;;;5029812;28;20044;-81
2020/12/11 00:14:17;;;;;;;20.33;10.52;;;-1.60;99.90;;;;;;5047258;28;20025;-81
2020/12/11 00:16:42;;;;;;;21.88;10.65;;;-1.80;99.90;;;;;;5046777;28;20039;-80
2020/12/11 00:19:08;;;;;;;17.40;9.75;;;-1.70;99.90;;;;;;5047068;28;20025;-85
2020/12/11 00:21:44;;;;;;;18.88;10.15;;;-1.70;99.90;;;;;;5029438;28;20119;-80
2020/12/11 00:24:11;;;;;;;17.23;9.43;;;-1.70;99.90;;;;;;5045203;28;20056;-81
2020/12/11 00:26:37;;;;;;;15.88;8.98;;;-1.70;99.90;;;;;;5047217;28;20033;-81
2020/12/11 00:29:04;;;;;;;18.67;8.65;;;-1.80;99.90;;;;;;5044998;28;20041;-82
2020/12/11 00:31:30;;;;;;;19.58;9.07;;;-1.70;99.90;;;;;;5029090;28;20561;-81
2020/12/11 00:33:55;;;;;;;17.23;8.18;;;-1.80;99.90;;;;;;5045472;28;20024;-80
2020/12/11 00:36:23;;;;;;;16.83;8.38;;;-1.80;99.90;;;;;;5028510;28;20040;-80
2020/12/11 00:38:49;;;;;;;15.02;7.68;;;-1.80;99.90;;;;;;5026919;28;20134;-80
2020/12/11 00:41:15;;;;;;;16.15;7.95;;;-1.80;99.90;;;;;;5045232;28;20132;-80
2020/12/11 00:43:41;;;;;;;16.42;7.60;;;-1.80;99.90;;;;;;5046557;28;20071;-80
2020/12/11 00:46:07;;;;;;;14.80;6.13;;;-1.90;99.90;;;;;;5027481;28;20045;-81
2020/12/11 00:48:32;;;;;;;16.48;8.50;;;-1.80;99.90;;;;;;5047277;28;20056;-80
2020/12/11 00:50:58;;;;;;;18.48;8.93;;;-1.80;99.90;;;;;;5044872;28;20037;-81
2020/12/11 00:53:24;;;;;;;18.00;9.43;;;-1.70;99.90;;;;;;5027783;28;20090;-80
2020/12/11 00:55:49;;;;;;;18.45;9.63;;;-1.70;99.90;;;;;;5046458;28;20151;-80
2020/12/11 00:58:15;;;;;;;17.40;9.20;;;-1.70;99.90;;;;;;5046905;28;20465;-85
2020/12/11 01:00:41;;;;;;;16.10;8.32;;;-1.70;99.90;;;;;;5028222;28;20033;-81
2020/12/11 01:03:07;;;;;;;27.27;12.75;;;-1.60;99.90;;;;;;5045851;28;20033;-80
2020/12/11 01:05:35;;;;;;;24.77;9.60;;;-1.50;99.90;;;;;;5027877;28;20501;-81
2020/12/11 01:08:03;;;;;;;14.60;6.72;;;-1.60;99.90;;;;;;5027584;28;20553;-82
2020/12/11 01:10:29;;;;;;;15.27;6.97;;;-1.30;99.90;;;;;;5046119;28;20036;-81
2020/12/11 01:12:55;;;;;;;15.93;7.65;;;-1.20;99.90;;;;;;5030398;28;20033;-81
2020/12/11 01:15:21;;;;;;;15.45;7.32;;;-1.10;99.90;;;;;;5026082;28;20040;-81
2020/12/11 01:17:46;;;;;;;15.15;7.78;;;-1.10;99.90;;;;;;5038524;28;20072;-85
2020/12/11 01:20:12;;;;;;;14.05;7.25;;;-1.20;99.90;;;;;;5028259;28;20520;-80
2020/12/11 01:22:38;;;;;;;10.13;5.07;;;-1.20;99.90;;;;;;5044645;28;20065;-81
2020/12/11 01:25:04;;;;;;;12.63;6.13;;;-1.30;99.90;;;;;;5028220;28;20033;-81
2020/12/11 01:27:30;;;;;;;15.80;7.40;;;-1.30;99.90;;;;;;5045400;28;20048;-80
2020/12/11 01:29:55;;;;;;;13.68;6.55;;;-1.50;99.90;;;;;;5045879;28;20029;-80
2020/12/11 01:32:21;;;;;;;13.00;4.90;;;-1.40;99.90;;;;;;5026664;28;20120;-80
2020/12/11 01:34:46;;;;;;;10.98;4.70;;;-1.40;99.90;;;;;;5045875;28;20029;-80
2020/12/11 01:37:12;;;;;;;9.63;3.55;;;-1.50;99.90;;;;;;5044316;28;20431;-81
2020/12/11 01:39:38;;;;;;;11.13;4.88;;;-1.60;99.90;;;;;;5046031;28;20462;-81
2020/12/11 01:42:12;;;;;;;10.57;5.53;;;-1.60;99.90;;;;;;5027826;28;20347;-81
2020/12/11 01:44:46;;;;;;;11.68;4.88;;;-1.50;99.90;;;;;;5046913;28;20033;-81
2020/12/11 01:47:12;;;;;;;11.20;4.32;;;-1.40;99.90;;;;;;5028559;28;20434;-81
2020/12/11 01:49:38;;;;;;;12.38;5.90;;;-1.50;99.90;;;;;;5048619;28;20051;-80
2020/12/11 01:52:05;;;;;;;13.48;6.47;;;-1.50;99.90;;;;;;5031390;28;20029;-85
2020/12/11 01:54:31;;;;;;;14.25;6.28;;;-1.40;99.90;;;;;;5029527;28;20116;-81
2020/12/11 01:57:04;;;;;;;15.93;7.15;;;-1.40;99.90;;;;;;5031484;28;20581;-81
2020/12/11 01:59:38;;;;;;;12.10;6.13;;;-1.30;99.90;;;;;;5027331;28;20028;-81
2020/12/11 02:02:05;;;;;;;12.70;6.15;;;-1.30;99.90;;;;;;5012160;28;20087;-81
2020/12/11 02:04:35;;;;;;;12.13;5.53;;;-1.20;99.90;;;;;;5030695;28;20489;-81
2020/12/11 02:07:01;;;;;;;9.07;3.70;;;-1.20;99.90;;;;;;5031467;28;20044;-81
2020/12/11 02:09:30;;;;;;;12.68;4.78;;;-1.20;99.90;;;;;;5047876;28;20037;-87
2020/12/11 02:11:56;;;;;;;13.57;6.55;;;-1.10;99.90;;;;;;5031437;28;20037;-80
2020/12/11 02:14:22;;;;;;;15.18;6.03;;;-1.10;99.90;;;;;;5048336;28;20056;-81
2020/12/11 02:16:48;;;;;;;15.70;6.57;;;-1.10;99.90;;;;;;5030927;28;20036;-81
2020/12/11 02:19:14;;;;;;;15.85;6.15;;;-1.10;99.90;;;;;;5048813;28;20120;-86
2020/12/11 02:21:40;;;;;;;16.88;6.93;;;-1.30;99.90;;;;;;5031258;28;20082;-80
2020/12/11 02:24:06;;;;;;;17.70;6.10;;;-1.30;99.90;;;;;;5048276;28;20057;-86
2020/12/11 02:26:32;;;;;;;12.73;5.70;;;-1.30;99.90;;;;;;5030834;28;20036;-86
2020/12/11 02:28:58;;;;;;;10.77;4.57;;;-1.30;99.90;;;;;;5046172;28;20040;-86
2020/12/11 02:31:23;;;;;;;9.85;3.63;;;-1.40;99.90;;;;;;5012188;28;20620;-80
2020/12/11 02:33:49;;;;;;;11.77;3.90;;;-1.40;99.90;;;;;;5010092;28;20180;-80
2020/12/11 02:36:19;;;;;;;10.77;3.63;;;-1.40;99.90;;;;;;5048388;28;20385;-81
2020/12/11 02:38:45;;;;;;;8.65;3.45;;;-1.40;99.90;;;;;;5030240;28;20036;-81
2020/12/11 02:41:11;;;;;;;8.52;3.80;;;-1.40;99.90;;;;;;5029495;28;20688;-81
2020/12/11 02:43:37;;;;;;;8.13;3.53;;;-1.40;99.90;;;;;;5048794;28;20080;-80
2020/12/11 02:46:04;;;;;;;7.38;3.33;;;-1.40;99.90;;;;;;5048125;28;20524;-80
2020/12/11 02:48:30;;;;;;;16.60;6.20;;;-1.30;99.90;;;;;;5031765;28;20292;-86
2020/12/11 02:50:57;;;;;;;19.20;8.00;;;-1.30;99.90;;;;;;5030203;28;20655;-86
2020/12/11 02:53:23;;;;;;;19.35;8.38;;;-1.30;99.90;;;;;;5030715;28;20525;-81
2020/12/11 02:55:49;;;;;;;16.95;6.40;;;-1.40;99.90;;;;;;5047028;28;20090;-81
2020/12/11 02:58:14;;;;;;;15.85;5.82;;;-1.30;99.90;;;;;;5030789;28;20028;-80
2020/12/11 03:00:40;;;;;;;11.95;4.95;;;-1.40;99.90;;;;;;5046587;28;20890;-81
2020/12/11 03:03:06;;;;;;;13.63;5.25;;;-1.40;99.90;;;;;;5048765;28;20040;-81
2020/12/11 03:05:31;;;;;;;14.45;5.70;;;-1.40;99.90;;;;;;5046651;28;20037;-80
2020/12/11 03:07:57;;;;;;;10.90;4.50;;;-1.40;99.90;;;;;;5030721;28;20037;-80
2020/12/11 03:10:22;;;;;;;10.00;4.05;;;-1.50;99.90;;;;;;5046525;28;20506;-80
2020/12/11 03:12:48;;;;;;;9.95;3.75;;;-1.50;99.90;;;;;;5029960;28;20028;-80
2020/12/11 03:15:14;;;;;;;6.68;2.65;;;-1.50;99.90;;;;;;5047029;28;20626;-80
2020/12/11 03:17:39;;;;;;;7.50;2.72;;;-1.40;99.90;;;;;;5046418;28;20119;-81
2020/12/11 03:20:05;;;;;;;7.30;2.20;;;-1.40;99.90;;;;;;5048167;28;20059;-80
2020/12/11 03:22:31;;;;;;;7.65;2.35;;;-1.30;99.90;;;;;;5048025;28;20036;-81
2020/12/11 03:24:56;;;;;;;6.80;2.45;;;-1.40;99.90;;;;;;5046959;28;20061;-81
2020/12/11 03:27:22;;;;;;;6.25;2.15;;;-1.40;99.90;;;;;;5047508;28;20048;-81
2020/12/11 03:29:48;;;;;;;7.57;2.88;;;-1.30;99.90;;;;;;5031078;28;20342;-81
2020/12/11 03:32:13;;;;;;;8.05;2.85;;;-1.40;99.90;;;;;;5009978;28;20481;-85
2020/12/11 03:34:39;;;;;;;10.38;3.53;;;-1.30;99.90;;;;;;5022036;28;20029;-80
2020/12/11 03:37:05;;;;;;;9.45;3.55;;;-1.30;99.90;;;;;;5047666;28;20037;-80
2020/12/11 03:39:30;;;;;;;9.93;3.95;;;-1.30;99.90;;;;;;5045916;28;20094;-80
2020/12/11 03:41:56;;;;;;;12.93;4.40;;;-1.40;99.90;;;;;;5028934;28;20039;-80
2020/12/11 03:44:22;;;;;;;10.75;4.95;;;-1.40;99.90;;;;;;5047524;28;20207;-86
2020/12/11 03:46:48;;;;;;;11.38;4.93;;;-1.40;99.90;;;;;;5046737;28;20505;-80
2020/12/11 03:49:13;;;;;;;9.52;4.07;;;-1.40;99.90;;;;;;5047659;28;20033;-85
2020/12/11 03:51:39;;;;;;;12.13;5.20;;;-1.40;99.90;;;;;;5028286;28;20035;-80
2020/12/11 03:54:05;;;;;;;12.88;5.47;;;-1.30;99.90;;;;;;5046808;28;20040;-80
2020/12/11 03:56:30;;;;;;;13.07;6.53;;;-1.30;99.90;;;;;;5045847;28;20454;-81
2020/12/11 03:58:56;;;;;;;12.82;6.10;;;-1.30;99.90;;;;;;5048422;28;20033;-81
2020/12/11 04:01:22;;;;;;;13.63;6.50;;;-1.40;99.90;;;;;;5026867;28;20029;-80
2020/12/11 04:03:48;;;;;;;11.80;6.25;;;-1.30;99.90;;;;;;5046682;28;20029;-81
2020/12/11 04:06:15;;;;;;;14.40;6.32;;;-1.30;99.90;;;;;;5044399;28;20533;-80
2020/12/11 04:08:42;;;;;;;13.48;5.75;;;-1.30;99.90;;;;;;5028202;28;20055;-80
2020/12/11 04:11:15;;;;;;;15.10;6.57;;;-1.50;99.90;;;;;;5007861;28;20056;-80
2020/12/11 04:13:41;;;;;;;14.88;6.38;;;-1.50;99.90;;;;;;5033891;28;20659;-81
2020/12/11 04:16:09;;;;;;;24.30;9.52;;;-1.60;99.90;;;;;;5009694;28;20482;-80
2020/12/11 04:18:35;;;;;;;24.48;9.45;;;-1.60;99.90;;;;;;5035394;28;20021;-80
2020/12/11 04:21:00;;;;;;;19.48;7.90;;;-1.60;99.90;;;;;;5029308;28;20045;-81
2020/12/11 04:23:27;;;;;;;17.05;7.85;;;-1.60;99.90;;;;;;5045077;28;20159;-80
2020/12/11 04:25:54;;;;;;;18.88;7.32;;;-1.50;99.90;;;;;;5046531;28;20496;-81
2020/12/11 04:28:20;;;;;;;19.15;8.38;;;-1.50;99.90;;;;;;5046124;28;20104;-80
2020/12/11 04:30:46;;;;;;;19.63;7.35;;;-1.60;99.90;;;;;;5028250;28;20076;-80
2020/12/11 04:33:12;;;;;;;14.45;7.35;;;-1.60;99.90;;;;;;5043780;28;20059;-80
2020/12/11 04:35:38;;;;;;;17.58;7.50;;;-1.70;99.90;;;;;;5026678;28;20589;-80
2020/12/11 04:38:04;;;;;;;14.65;7.35;;;-1.70;99.90;;;;;;5026571;28;20463;-80
2020/12/11 04:40:30;;;;;;;14.65;6.78;;;-1.60;99.90;;;;;;5026974;28;20072;-80
2020/12/11 04:42:56;;;;;;;16.88;7.15;;;-1.70;99.90;;;;;;5046822;28;20020;-80
2020/12/11 04:45:23;;;;;;;17.42;7.78;;;-1.70;99.90;;;;;;5045859;28;20071;-85
2020/12/11 04:47:50;;;;;;;14.85;5.97;;;-1.70;99.90;;;;;;5034042;28;20113;-80
2020/12/11 04:50:17;;;;;;;12.38;6.03;;;-1.70;99.90;;;;;;5028460;28;20063;-86
2020/12/11 04:52:48;;;;;;;15.40;7.03;;;-1.70;99.90;;;;;;5027067;28;20028;-81
2020/12/11 04:55:16;;;;;;;13.80;7.20;;;-1.80;99.90;;;;;;5045776;28;20060;-80
2020/12/11 04:57:50;;;;;;;12.98;7.03;;;-1.70;99.90;;;;;;5027041;28;20116;-86
2020/12/11 05:00:19;;;;;;;14.00;7.00;;;-1.80;99.90;;;;;;5045763;28;20036;-81
2020/12/11 05:02:45;;;;;;;16.02;8.02;;;-1.80;99.90;;;;;;5044910;28;20029;-82
2020/12/11 05:05:12;;;;;;;12.43;6.95;;;-1.70;99.90;;;;;;5045284;28;20033;-81
2020/12/11 05:07:38;;;;;;;16.15;6.93;;;-1.70;99.90;;;;;;5046341;28;20032;-81
2020/12/11 05:10:05;;;;;;;14.85;7.65;;;-1.70;99.90;;;;;;5027387;28;20139;-80
2020/12/11 05:12:32;;;;;;;16.73;8.23;;;-1.90;99.90;;;;;;5046116;28;20051;-80
2020/12/11 05:15:06;;;;;;;19.08;7.80;;;-1.80;99.90;;;;;;5046560;28;20482;-85
2020/12/11 05:17:34;;;;;;;16.45;8.52;;;-1.70;99.90;;;;;;5027425;28;20029;-81
2020/12/11 05:20:00;;;;;;;14.73;8.07;;;-1.80;99.90;;;;;;5046337;28;20243;-80
2020/12/11 05:22:31;;;;;;;15.77;8.80;;;-1.70;99.90;;;;;;5028374;28;20319;-81
2020/12/11 05:24:57;;;;;;;18.20;9.20;;;-1.70;99.90;;;;;;5048373;28;20087;-81
2020/12/11 05:27:30;;;;;;;16.48;9.13;;;-1.70;99.90;;;;;;5049871;28;20060;-86
2020/12/11 05:30:17;;;;;;;17.00;8.95;;;-1.70;99.90;;;;;;5031601;28;20033;-80
2020/12/11 05:32:50;;;;;;;15.73;9.05;;;-1.70;99.90;;;;;;5030604;28;20033;-80
2020/12/11 05:35:19;;;;;;;18.35;8.80;;;-1.70;99.90;;;;;;5032353;28;20044;-86
2020/12/11 05:38:05;;;;;;;14.60;8.98;;;-1.70;99.90;;;;;;5031980;28;20143;-86
2020/12/11 05:40:39;;;;;;;16.75;9.25;;;-1.70;99.90;;;;;;5031877;28;20102;-86
2020/12/11 05:43:09;;;;;;;17.60;8.50;;;-1.70;99.90;;;;;;5031767;28;20037;-81
2020/12/11 05:45:55;;;;;;;14.50;7.80;;;-1.80;99.90;;;;;;5048019;28;20033;-79
2020/12/11 05:48:23;;;;;;;17.60;9.25;;;-1.70;99.90;;;;;;5031993;28;20029;-80
2020/12/11 05:50:49;;;;;;;15.82;8.70;;;-1.70;99.90;;;;;;5032583;28;20041;-86
2020/12/11 05:53:15;;;;;;;14.95;8.93;;;-1.60;99.90;;;;;;5039383;28;20052;-81
2020/12/11 05:55:41;;;;;;;22.75;10.68;;;-1.50;99.90;;;;;;5049792;28;20095;-81
2020/12/11 05:58:10;;;;;;;19.42;10.80;;;-1.50;99.90;;;;;;5048594;28;20114;-81
2020/12/11 06:00:39;;;;;;;19.55;12.88;;;-1.50;99.90;;;;;;5030353;28;20075;-80
2020/12/11 06:03:06;;;;;;;22.13;13.70;;;-1.50;99.90;;;;;;5049862;28;20032;-81
2020/12/11 06:05:39;;;;;;;16.52;7.80;;;-1.50;99.90;;;;;;5047411;28;20512;-81
2020/12/11 06:08:11;;;;;;;10.73;4.75;;;-1.50;99.90;;;;;;5051126;28;20052;-86
2020/12/11 06:10:40;;;;;;;4.88;1.98;;;-1.30;99.90;;;;;;5026157;28;20529;-80
2020/12/11 06:13:07;;;;;;;9.35;2.65;;;-1.10;99.90;;;;;;5040657;28;20498;-81
2020/12/11 06:15:45;;;;;;;14.15;7.18;;;-1.00;99.90;;;;;;5043081;28;20156;-85
2020/12/11 06:18:15;;;;;;;55.08;29.17;;;-0.90;99.90;;;;;;5043770;28;20094;-81
2020/12/11 06:20:45;;;;;;;34.42;19.95;;;-0.90;99.90;;;;;;5045096;28;20057;-82
2020/12/11 06:23:29;;;;;;;18.33;10.75;;;-0.90;99.90;;;;;;5025139;28;20044;-81
2020/12/11 06:26:02;;;;;;;20.52;10.23;;;-0.90;99.90;;;;;;5041592;28;20497;-81
2020/12/11 06:28:45;;;;;;;15.00;8.35;;;-1.00;99.90;;;;;;5043792;28;21644;-80
2020/12/11 06:31:13;;;;;;;17.00;10.93;;;-1.10;99.90;;;;;;5026453;28;20420;-81
2020/12/11 06:33:41;;;;;;;18.00;11.23;;;-1.00;99.90;;;;;;5041526;28;20383;-85
2020/12/11 06:36:07;;;;;;;14.52;7.93;;;-1.00;99.90;;;;;;5025559;28;20116;-82
2020/12/11 06:39:08;;;;;;;17.80;9.32;;;-1.00;99.90;;;;;;5026822;28;20025;-81
2020/12/11 06:41:34;;;;;;;16.05;9.10;;;-1.00;99.90;;;;;;5002406;28;20124;-86
2020/12/11 06:44:20;;;;;;;13.70;8.10;;;-1.00;99.90;;;;;;5044621;28;20051;-81
2020/12/11 06:47:08;;;;;;;13.30;6.57;;;-1.00;99.90;;;;;;5042572;28;20129;-85
2020/12/11 06:49:34;;;;;;;17.20;8.45;;;-1.10;99.90;;;;;;5022506;28;20486;-80
2020/12/11 06:52:03;;;;;;;15.15;7.57;;;-1.10;99.90;;;;;;5048074;28;20094;-81
2020/12/11 06:54:28;;;;;;;15.35;8.00;;;-1.00;99.90;;;;;;5042725;28;20057;-81
2020/12/11 06:56:56;;;;;;;19.35;9.45;;;-1.00;99.90;;;;;;5039782;28;20361;-80
2020/12/11 06:59:33;;;;;;;17.60;9.02;;;-1.00;99.90;;;;;;5019768;28;20057;-79
2020/12/11 07:02:02;;;;;;;15.90;7.30;;;-1.00;99.90;;;;;;5024319;28;20091;-81
2020/12/11 07:04:48;;;;;;;21.55;12.02;;;-1.00;99.90;;;;;;5040354;28;20037;-80
2020/12/11 07:07:14;;;;;;;21.35;10.20;;;-1.10;99.90;;;;;;5044014;28;20087;-81
2020/12/11 07:09:41;;;;;;;16.83;8.38;;;-1.00;99.90;;;;;;5027343;28;20057;-80
2020/12/11 07:12:08;;;;;;;18.08;8.68;;;-1.10;99.90;;;;;;5044211;28;20121;-81
2020/12/11 07:14:34;;;;;;;16.73;8.52;;;-1.00;99.90;;;;;;5015018;28;20037;-81
2020/12/11 07:17:00;;;;;;;20.77;9.00;;;-1.00;99.90;;;;;;5030736;28;20099;-86
2020/12/11 07:19:31;;;;;;;16.15;8.80;;;-1.00;99.90;;;;;;5034517;28;20032;-86
2020/12/11 07:21:57;;;;;;;15.47;8.30;;;-1.00;99.90;;;;;;5026288;28;20029;-81
2020/12/11 07:24:24;;;;;;;16.05;7.40;;;-1.00;99.90;;;;;;5039638;28;20494;-81
2020/12/11 07:26:59;;;;;;;14.07;7.40;;;-1.00;99.90;;;;;;5031872;28;20025;-81
2020/12/11 07:29:24;;;;;;;19.02;7.60;;;-1.00;99.90;;;;;;5046421;28;20036;-81
2020/12/11 07:31:52;;;;;;;23.40;10.57;;;-1.10;99.90;;;;;;5037447;28;20553;-80
2020/12/11 07:34:23;;;;;;;18.08;7.72;;;-1.10;99.90;;;;;;5032282;28;20613;-86
2020/12/11 07:36:57;;;;;;;13.98;6.22;;;-1.10;99.90;;;;;;5038378;28;20056;-81
2020/12/11 07:39:24;;;;;;;14.57;5.53;;;-1.00;99.90;;;;;;5046015;28;20029;-81
2020/12/11 07:41:51;;;;;;;13.35;5.53;;;-1.00;99.90;;;;;;5026786;28;20032;-80
2020/12/11 07:44:28;;;;;;;13.60;6.28;;;-1.00;99.90;;;;;;5029986;28;20494;-81
2020/12/11 07:46:55;;;;;;;18.08;9.55;;;-1.00;99.90;;;;;;5040213;28;20035;-81
2020/12/11 07:49:38;;;;;;;19.80;9.10;;;-0.90;99.90;;;;;;5045774;28;20124;-81
2020/12/11 07:52:05;;;;;;;22.25;9.80;;;-0.90;99.90;;;;;;5041664;28;20048;-85
2020/12/11 07:54:34;;;;;;;19.77;8.95;;;-0.90;99.90;;;;;;5029868;28;20059;-81
2020/12/11 07:57:17;;;;;;;20.98;8.57;;;-0.90;99.90;;;;;;5027447;28;20199;-81
2020/12/11 07:59:55;;;;;;;20.55;8.38;;;-0.90;99.90;;;;;;5040563;28;20033;-81
2020/12/11 08:02:22;;;;;;;17.55;8.63;;;-0.80;99.90;;;;;;5039493;28;20427;-81
2020/12/11 08:04:48;;;;;;;20.55;9.82;;;-0.80;99.90;;;;;;5025794;28;20425;-80
2020/12/11 08:07:24;;;;;;;17.73;9.23;;;-0.80;99.90;;;;;;5020590;28;20067;-80
2020/12/11 08:09:51;;;;;;;22.08;9.27;;;-0.70;99.90;;;;;;5044599;28;20025;-80
2020/12/11 08:12:16;;;;;;;17.42;8.35;;;-0.80;99.90;;;;;;5023349;28;20470;-80
2020/12/11 08:14:42;;;;;;;16.55;8.35;;;-0.70;99.90;;;;;;5040068;28;20079;-85
2020/12/11 08:17:10;;;;;;;22.02;8.93;;;-0.60;99.90;;;;;;5039194;28;20034;-81
2020/12/11 08:19:35;;;;;;;16.27;7.93;;;-0.60;99.90;;;;;;5039621;28;20465;-81
2020/12/11 08:22:14;;;;;;;19.35;8.27;;;-0.60;99.90;;;;;;5045852;28;20037;-85
2020/12/11 08:24:40;;;;;;;18.10;8.63;;;-0.60;99.90;;;;;;5034915;28;20312;-80
2020/12/11 08:27:20;;;;;;;16.92;8.55;;;-0.60;99.90;;;;;;5042296;28;20034;-81
2020/12/11 08:30:13;;;;;;;19.08;8.43;;;-0.60;99.90;;;;;;5033615;28;20421;-80
2020/12/11 08:32:40;;;;;;;22.52;9.15;;;-0.60;99.90;;;;;;5036746;28;20028;-80
2020/12/11 08:35:16;;;;;;;20.17;9.75;;;-0.50;99.90;;;;;;5020511;28;20474;-86
2020/12/11 08:37:54;;;;;;;23.45;10.70;;;-0.50;99.90;;;;;;5023366;28;20040;-80
2020/12/11 08:40:20;;;;;;;22.90;11.77;;;-0.50;99.90;;;;;;5013584;28;20485;-81
2020/12/11 08:43:03;;;;;;;27.58;13.75;;;-0.50;99.90;;;;;;5034535;28;20064;-80
2020/12/11 08:45:49;;;;;;;27.63;14.95;;;-0.40;99.90;;;;;;5010891;28;20037;-81
2020/12/11 08:50:47;;;;;;;44.72;23.92;;;-0.50;99.90;;;;;;5039552;28;20497;-80
2020/12/11 08:53:15;;;;;;;44.40;23.90;;;-0.50;99.90;;;;;;5016521;28;20076;-80
2020/12/11 08:55:40;;;;;;;36.55;20.25;;;-0.40;99.90;;;;;;5036922;28;20479;-80
2020/12/11 08:58:07;;;;;;;32.83;16.50;;;-0.30;99.90;;;;;;5038866;28;20132;-81
2020/12/11 09:00:34;;;;;;;33.92;18.92;;;-0.10;99.90;;;;;;5042149;28;20033;-86
2020/12/11 09:03:00;;;;;;;29.67;15.32;;;-0.10;99.90;;;;;;5026841;28;20037;-81
2020/12/11 09:05:26;;;;;;;32.30;16.27;;;0.10;99.90;;;;;;5016760;28;20045;-86
2020/12/11 09:07:52;;;;;;;32.95;16.80;;;0.10;99.90;;;;;;5012281;28;20032;-81
2020/12/11 09:10:19;;;;;;;24.33;13.55;;;0.20;99.90;;;;;;5047115;28;20045;-81
2020/12/11 09:12:47;;;;;;;24.27;11.68;;;0.30;99.90;;;;;;5036443;28;20017;-81
2020/12/11 09:15:13;;;;;;;26.17;14.48;;;0.40;99.90;;;;;;5039057;28;20115;-81
2020/12/11 09:17:39;;;;;;;31.85;17.52;;;0.40;99.90;;;;;;5020604;28;20021;-80
2020/12/11 09:20:06;;;;;;;37.10;22.42;;;0.40;99.90;;;;;;5036783;28;20040;-80
2020/12/11 09:22:32;;;;;;;31.73;21.33;;;0.50;99.90;;;;;;5039533;28;20289;-80
2020/12/11 09:24:58;;;;;;;33.47;20.35;;;0.60;99.90;;;;;;5046933;28;20441;-81
2020/12/11 09:27:24;;;;;;;31.52;17.80;;;0.70;99.90;;;;;;5040435;28;20041;-80
2020/12/11 09:29:52;;;;;;;30.70;19.08;;;0.60;99.90;;;;;;5035620;28;20033;-80
2020/12/11 09:32:30;;;;;;;34.78;19.35;;;0.70;99.90;;;;;;5013398;28;20067;-80
2020/12/11 09:34:56;;;;;;;42.78;17.95;;;0.70;99.90;;;;;;5042508;28;20503;-80
2020/12/11 09:37:21;;;;;;;41.47;17.23;;;0.60;99.90;;;;;;5038495;28;20288;-80
2020/12/11 09:39:47;;;;;;;38.63;15.48;;;0.60;99.90;;;;;;5041436;28;20437;-80
2020/12/11 09:42:33;;;;;;;28.98;15.60;;;0.70;99.90;;;;;;5042390;28;20025;-81
2020/12/11 09:45:17;;;;;;;31.20;16.23;;;0.60;99.90;;;;;;5023553;28;20128;-80
2020/12/11 09:47:52;;;;;;;27.85;14.23;;;0.70;99.90;;;;;;5034639;28;20021;-81
2020/12/11 09:55:16;;;;;;;30.63;15.43;;;0.70;99.90;;;;;;5042181;28;20041;-80
2020/12/11 09:57:41;;;;;;;22.55;13.02;;;0.70;99.90;;;;;;5012027;28;20100;-80
2020/12/11 10:00:07;;;;;;;22.75;11.07;;;0.70;99.90;;;;;;5039938;28;20033;-80
2020/12/11 10:04:59;;;;;;;31.20;14.45;;;0.70;99.90;;;;;;5033935;28;20037;-80
2020/12/11 10:07:24;;;;;;;26.17;13.55;;;0.80;99.90;;;;;;5028956;28;20025;-85
2020/12/11 10:09:50;;;;;;;25.27;12.75;;;0.70;99.90;;;;;;5025627;28;20037;-81
2020/12/11 10:12:18;;;;;;;25.95;14.75;;;0.70;99.90;;;;;;5042439;28;20040;-80
2020/12/11 10:14:48;;;;;;;27.48;13.43;;;0.80;99.90;;;;;;5043139;28;20035;-81
2020/12/11 10:17:15;;;;;;;23.27;12.55;;;0.80;99.90;;;;;;5046791;28;20024;-81
2020/12/11 10:19:40;;;;;;;27.15;14.13;;;0.80;99.90;;;;;;5036125;28;20034;-80
2020/12/11 10:22:06;;;;;;;28.40;14.02;;;0.80;99.90;;;;;;5045967;28;20387;-81
2020/12/11 10:24:32;;;;;;;29.65;15.90;;;0.90;99.90;;;;;;5039067;28;20057;-81
2020/12/11 10:26:57;;;;;;;30.88;15.55;;;1.00;99.90;;;;;;5049228;28;20467;-80
2020/12/11 10:29:23;;;;;;;31.13;12.48;;;1.00;99.90;;;;;;5041755;28;20060;-80
2020/12/11 10:31:48;;;;;;;26.90;10.80;;;1.00;99.90;;;;;;5043413;28;20033;-85
2020/12/11 10:34:17;;;;;;;36.95;21.90;;;0.90;99.90;;;;;;5020756;28;20048;-86
2020/12/11 10:36:43;;;;;;;28.65;13.35;;;1.10;99.90;;;;;;5021647;28;20076;-80
2020/12/11 10:39:09;;;;;;;22.42;9.95;;;1.00;99.90;;;;;;5029215;28;20041;-81
2020/12/11 10:41:36;;;;;;;23.42;11.05;;;1.00;99.90;;;;;;5047874;28;20049;-80
2020/12/11 10:44:02;;;;;;;21.20;9.95;;;1.10;99.90;;;;;;5043337;28;20116;-80
2020/12/11 10:46:28;;;;;;;17.73;9.38;;;1.10;99.90;;;;;;5042910;28;20036;-80
2020/12/11 10:48:54;;;;;;;23.88;11.23;;;1.20;99.90;;;;;;5047740;28;20033;-80
2020/12/11 10:51:20;;;;;;;21.42;9.30;;;1.10;99.90;;;;;;5036651;28;20034;-80
2020/12/11 10:53:46;;;;;;;17.75;7.38;;;1.10;99.90;;;;;;5041769;28;20032;-85
2020/12/11 10:56:13;;;;;;;11.52;6.40;;;1.20;99.90;;;;;;5016856;28;20476;-80
2020/12/11 10:58:39;;;;;;;13.55;6.85;;;1.30;99.90;;;;;;5035951;28;20044;-86
2020/12/11 11:01:11;;;;;;;13.52;5.97;;;1.40;99.90;;;;;;5027195;28;20032;-85
2020/12/11 11:03:37;;;;;;;16.42;7.57;;;1.50;99.90;;;;;;5024574;28;20033;-80
2020/12/11 11:06:12;;;;;;;16.30;6.57;;;1.50;99.90;;;;;;5036168;28;20399;-82
2020/12/11 11:08:50;;;;;;;14.73;6.57;;;1.60;99.90;;;;;;5043493;28;20051;-80
2020/12/11 11:11:20;;;;;;;15.85;7.70;;;1.60;99.90;;;;;;5017950;28;20232;-80
2020/12/11 11:29:52;;;;;;;18.65;10.82;;;1.70;99.90;;;;;;5037870;28;20063;-80
2020/12/11 11:32:18;;;;;;;20.48;10.35;;;1.70;99.90;;;;;;5047204;28;20033;-80
2020/12/11 11:34:43;;;;;;;15.07;7.50;;;1.70;99.90;;;;;;5037301;28;20488;-82
2020/12/11 11:37:09;;;;;;;17.60;7.57;;;1.70;99.90;;;;;;5027031;28;20021;-81
2020/12/11 11:39:35;;;;;;;16.70;8.90;;;1.70;99.90;;;;;;5022102;28;20037;-80
2020/12/11 11:42:01;;;;;;;18.25;9.88;;;1.70;99.90;;;;;;5048481;28;20090;-80
2020/12/11 11:47:01;;;;;;;13.02;5.97;;;1.70;99.90;;;;;;5034310;28;20029;-80
2020/12/11 11:49:38;;;;;;;9.70;5.00;;;1.80;99.90;;;;;;5036611;28;20250;-80
2020/12/11 11:52:15;;;;;;;8.25;3.72;;;1.90;99.90;;;;;;5037131;28;20117;-80
2020/12/11 11:54:41;;;;;;;7.07;3.28;;;1.90;99.90;;;;;;5016429;28;20037;-80
2020/12/11 11:57:07;;;;;;;11.18;3.20;;;2.10;99.90;;;;;;5045816;28;20028;-80
2020/12/11 11:59:32;;;;;;;7.90;3.20;;;2.20;99.90;;;;;;5041294;28;20450;-80
2020/12/11 12:01:58;;;;;;;6.88;2.47;;;2.20;99.90;;;;;;5041961;28;20381;-86
2020/12/11 12:04:24;;;;;;;8.45;1.65;;;2.40;99.90;;;;;;5020825;28;20041;-85
2020/12/11 12:06:49;;;;;;;3.53;1.42;;;2.50;99.90;;;;;;5025004;28;20037;-80
2020/12/11 12:09:17;;;;;;;3.90;1.30;;;2.70;99.90;;;;;;5030243;28;20048;-86
2020/12/11 12:11:43;;;;;;;5.45;1.65;;;2.80;99.90;;;;;;5022061;28;20123;-86
2020/12/11 12:14:09;;;;;;;3.47;1.00;;;2.80;99.90;;;;;;5017230;28;20537;-80
2020/12/11 12:16:36;;;;;;;4.63;1.92;;;2.80;99.90;;;;;;5027825;28;20028;-86
2020/12/11 12:19:02;;;;;;;5.20;2.17;;;2.90;99.90;;;;;;5018689;28;20183;-86
2020/12/11 12:21:41;;;;;;;5.03;2.25;;;2.90;99.90;;;;;;5015105;28;20046;-81
2020/12/11 12:29:36;;;;;;;4.45;1.00;;;3.00;99.90;;;;;;5041039;28;20048;-87
2020/12/11 12:32:15;;;;;;;10.50;2.42;;;3.10;99.90;;;;;;5024281;28;20494;-81
2020/12/11 12:44:41;;;;;;;9.52;4.65;;;3.20;99.90;;;;;;5043059;28;20044;-88
2020/12/11 12:47:07;;;;;;;8.50;3.00;;;3.30;99.90;;;;;;5028248;28;20032;-81
2020/12/11 12:49:33;;;;;;;10.13;4.38;;;3.20;99.90;;;;;;5043437;28;20072;-81
2020/12/11 12:51:58;;;;;;;18.00;10.10;;;3.20;99.90;;;;;;5020842;28;20457;-80
2020/12/11 12:54:25;;;;;;;15.88;7.00;;;3.10;99.90;;;;;;5033214;28;20076;-86
2020/12/11 12:56:56;;;;;;;4.47;1.65;;;3.00;99.90;;;;;;5014879;28;20021;-80
2020/12/11 13:02:08;;;;;;;11.00;5.25;;;3.20;99.90;;;;;;5041315;28;20028;-81
2020/12/11 13:04:42;;;;;;;6.28;3.30;;;3.20;99.90;;;;;;5036868;28;20039;-81
2020/12/11 13:07:08;;;;;;;10.13;4.38;;;3.10;99.90;;;;;;5030813;28;20458;-87
2020/12/11 13:09:35;;;;;;;15.20;5.93;;;3.10;99.90;;;;;;5022563;28;20033;-81
2020/12/11 13:12:01;;;;;;;19.25;11.27;;;3.10;99.90;;;;;;5036533;28;20351;-80
2020/12/11 13:14:27;;;;;;;9.90;4.07;;;3.10;99.90;;;;;;5022668;28;20033;-81
2020/12/11 13:16:53;;;;;;;8.98;3.13;;;3.00;99.90;;;;;;5041126;28;20039;-87
2020/12/11 13:19:22;;;;;;;4.90;1.70;;;2.90;99.90;;;;;;5017174;28;20028;-81
2020/12/11 13:27:29;;;;;;;15.40;7.47;;;3.00;99.90;;;;;;5016782;28;20140;-81
2020/12/11 13:29:55;;;;;;;14.50;9.05;;;3.00;99.90;;;;;;5041298;28;20029;-86
2020/12/11 13:32:21;;;;;;;17.85;9.93;;;3.00;99.90;;;;;;5018088;28;20495;-80
2020/12/11 13:34:50;;;;;;;18.70;12.02;;;3.00;99.90;;;;;;5017615;28;20026;-81
2020/12/11 13:37:16;;;;;;;15.93;10.98;;;3.00;99.90;;;;;;5034374;28;20116;-87